sensor_id;sensor_type;location;lat;lon;timestamp;P1;durP1;ratioP1;P2;durP2;ratioP2
10491;SDS011;5293;51.464;-2.566;2023-04-06T00:01:36;8.23;;;6.40;;
10491;SDS011;5293;51.464;-2.566;2023-04-06T00:04:02;8.27;;;6.17;;
10491;SDS011;5293;51.464;-2.566;2023-04-06T00:06:27;6.83;;;6.10;;
10491;SDS011;5293;51.464;-2.566;2023-04-06T00:08:53;8.47;;;6.00;;
10491;SDS011;5293;51.464;-2.566;2023-04-06T00:11:19;7.97;;;6.20;;
10491;SDS011;5293;51.464;-2.566;2023-04-06T00:13:45;9.90;;;6.20;;
10491;SDS011;5293;51.464;-2.566;2023-04-06T00:16:11;6.77;;;5.50;;
10491;SDS011;5293;51.464;-2.566;2023-04-06T00:18:37;7.73;;;6.17;;
10491;SDS011;5293;51.464;-2.566;2023-04-06T00:21:03;8.07;;;6.40;;
10491;SDS011;5293;51.464;-2.566;2023-04-06T00:23:28;8.70;;;6.93;;
10491;SDS011;5293;51.464;-2.566;2023-04-06T00:25:54;8.43;;;5.87;;
10491;SDS011;5293;51.464;-2.566;2023-04-06T00:28:20;6.60;;;5.57;;
10491;SDS011;5293;51.464;-2.566;2023-04-06T00:30:50;8.20;;;6.10;;
10491;SDS011;5293;51.464;-2.566;2023-04-06T00:33:20;7.60;;;5.03;;
10491;SDS011;5293;51.464;-2.566;2023-04-06T00:35:46;6.80;;;5.47;;
10491;SDS011;5293;51.464;-2.566;2023-04-06T00:38:12;7.63;;;5.60;;
10491;SDS011;5293;51.464;-2.566;2023-04-06T00:40:39;7.40;;;5.97;;
10491;SDS011;5293;51.464;-2.566;2023-04-06T00:43:07;9.20;;;5.93;;
10491;SDS011;5293;51.464;-2.566;2023-04-06T00:45:34;8.73;;;5.83;;
10491;SDS011;5293;51.464;-2.566;2023-04-06T00:48:00;7.67;;;5.33;;
10491;SDS011;5293;51.464;-2.566;2023-04-06T00:50:26;7.27;;;5.70;;
10491;SDS011;5293;51.464;-2.566;2023-04-06T00:52:52;8.03;;;5.73;;
10491;SDS011;5293;51.464;-2.566;2023-04-06T00:55:19;6.90;;;5.73;;
10491;SDS011;5293;51.464;-2.566;2023-04-06T00:57:45;9.00;;;5.50;;
10491;SDS011;5293;51.464;-2.566;2023-04-06T01:00:12;7.23;;;5.43;;
10491;SDS011;5293;51.464;-2.566;2023-04-06T01:02:38;6.87;;;5.37;;
10491;SDS011;5293;51.464;-2.566;2023-04-06T01:05:04;5.63;;;5.13;;
10491;SDS011;5293;51.464;-2.566;2023-04-06T01:07:30;6.93;;;5.30;;
10491;SDS011;5293;51.464;-2.566;2023-04-06T01:09:56;7.00;;;5.53;;
10491;SDS011;5293;51.464;-2.566;2023-04-06T01:12:22;6.17;;;5.40;;
10491;SDS011;5293;51.464;-2.566;2023-04-06T01:14:48;6.33;;;5.10;;
10491;SDS011;5293;51.464;-2.566;2023-04-06T01:17:14;5.83;;;4.97;;
10491;SDS011;5293;51.464;-2.566;2023-04-06T01:19:39;6.60;;;5.23;;
10491;SDS011;5293;51.464;-2.566;2023-04-06T01:22:05;5.30;;;4.80;;
10491;SDS011;5293;51.464;-2.566;2023-04-06T01:24:31;5.90;;;5.07;;
10491;SDS011;5293;51.464;-2.566;2023-04-06T01:26:57;6.33;;;5.10;;
10491;SDS011;5293;51.464;-2.566;2023-04-06T01:29:23;5.40;;;4.90;;
10491;SDS011;5293;51.464;-2.566;2023-04-06T01:31:49;5.50;;;4.70;;
10491;SDS011;5293;51.464;-2.566;2023-04-06T01:34:15;4.87;;;3.93;;
10491;SDS011;5293;51.464;-2.566;2023-04-06T01:36:41;6.20;;;4.50;;
10491;SDS011;5293;51.464;-2.566;2023-04-06T01:39:07;4.87;;;4.40;;
10491;SDS011;5293;51.464;-2.566;2023-04-06T01:41:33;4.23;;;3.83;;
10491;SDS011;5293;51.464;-2.566;2023-04-06T01:43:59;5.50;;;4.40;;
10491;SDS011;5293;51.464;-2.566;2023-04-06T01:46:25;6.30;;;4.80;;
10491;SDS011;5293;51.464;-2.566;2023-04-06T01:48:51;4.60;;;4.20;;
10491;SDS011;5293;51.464;-2.566;2023-04-06T01:51:17;4.73;;;4.27;;
10491;SDS011;5293;51.464;-2.566;2023-04-06T01:53:42;4.30;;;3.87;;
10491;SDS011;5293;51.464;-2.566;2023-04-06T01:56:08;4.20;;;3.80;;
10491;SDS011;5293;51.464;-2.566;2023-04-06T01:58:34;5.63;;;4.17;;
10491;SDS011;5293;51.464;-2.566;2023-04-06T02:01:00;4.10;;;3.67;;
10491;SDS011;5293;51.464;-2.566;2023-04-06T02:03:26;3.50;;;3.20;;
10491;SDS011;5293;51.464;-2.566;2023-04-06T02:05:51;2.97;;;2.67;;
10491;SDS011;5293;51.464;-2.566;2023-04-06T02:08:17;3.30;;;3.00;;
10491;SDS011;5293;51.464;-2.566;2023-04-06T02:10:42;3.00;;;2.80;;
10491;SDS011;5293;51.464;-2.566;2023-04-06T02:13:08;3.13;;;2.83;;
10491;SDS011;5293;51.464;-2.566;2023-04-06T02:15:34;3.27;;;2.97;;
10491;SDS011;5293;51.464;-2.566;2023-04-06T02:17:59;3.30;;;2.93;;
10491;SDS011;5293;51.464;-2.566;2023-04-06T02:20:26;2.43;;;1.87;;
10491;SDS011;5293;51.464;-2.566;2023-04-06T02:22:52;2.17;;;2.03;;
10491;SDS011;5293;51.464;-2.566;2023-04-06T02:25:17;2.87;;;1.67;;
10491;SDS011;5293;51.464;-2.566;2023-04-06T02:27:43;2.87;;;1.37;;
10491;SDS011;5293;51.464;-2.566;2023-04-06T02:30:09;1.37;;;1.27;;
10491;SDS011;5293;51.464;-2.566;2023-04-06T02:32:35;1.73;;;1.30;;
10491;SDS011;5293;51.464;-2.566;2023-04-06T02:35:00;2.27;;;1.50;;
10491;SDS011;5293;51.464;-2.566;2023-04-06T02:37:26;1.27;;;1.17;;
10491;SDS011;5293;51.464;-2.566;2023-04-06T02:39:52;1.57;;;1.10;;
10491;SDS011;5293;51.464;-2.566;2023-04-06T02:42:18;1.80;;;1.50;;
10491;SDS011;5293;51.464;-2.566;2023-04-06T02:44:43;1.17;;;0.97;;
10491;SDS011;5293;51.464;-2.566;2023-04-06T02:47:09;2.30;;;1.00;;
10491;SDS011;5293;51.464;-2.566;2023-04-06T02:49:35;2.63;;;1.00;;
10491;SDS011;5293;51.464;-2.566;2023-04-06T02:52:01;1.30;;;1.20;;
10491;SDS011;5293;51.464;-2.566;2023-04-06T02:54:27;1.47;;;1.07;;
10491;SDS011;5293;51.464;-2.566;2023-04-06T02:56:53;1.07;;;0.73;;
10491;SDS011;5293;51.464;-2.566;2023-04-06T02:59:18;0.73;;;0.73;;
10491;SDS011;5293;51.464;-2.566;2023-04-06T03:01:44;1.20;;;0.90;;
10491;SDS011;5293;51.464;-2.566;2023-04-06T03:04:10;2.13;;;0.80;;
10491;SDS011;5293;51.464;-2.566;2023-04-06T03:06:36;1.70;;;0.80;;
10491;SDS011;5293;51.464;-2.566;2023-04-06T03:09:02;0.70;;;0.63;;
10491;SDS011;5293;51.464;-2.566;2023-04-06T03:11:28;4.37;;;0.90;;
10491;SDS011;5293;51.464;-2.566;2023-04-06T03:13:53;2.77;;;1.10;;
10491;SDS011;5293;51.464;-2.566;2023-04-06T03:16:19;0.77;;;0.70;;
10491;SDS011;5293;51.464;-2.566;2023-04-06T03:18:45;2.10;;;1.00;;
10491;SDS011;5293;51.464;-2.566;2023-04-06T03:21:12;0.70;;;0.70;;
10491;SDS011;5293;51.464;-2.566;2023-04-06T03:23:38;1.70;;;0.70;;
10491;SDS011;5293;51.464;-2.566;2023-04-06T03:26:03;2.73;;;1.10;;
10491;SDS011;5293;51.464;-2.566;2023-04-06T03:28:29;5.37;;;1.50;;
10491;SDS011;5293;51.464;-2.566;2023-04-06T03:30:55;1.67;;;0.90;;
10491;SDS011;5293;51.464;-2.566;2023-04-06T03:33:20;1.70;;;0.93;;
10491;SDS011;5293;51.464;-2.566;2023-04-06T03:35:46;1.70;;;1.00;;
10491;SDS011;5293;51.464;-2.566;2023-04-06T03:38:12;3.53;;;1.20;;
10491;SDS011;5293;51.464;-2.566;2023-04-06T03:40:37;4.00;;;1.03;;
10491;SDS011;5293;51.464;-2.566;2023-04-06T03:43:03;2.30;;;1.30;;
10491;SDS011;5293;51.464;-2.566;2023-04-06T03:45:29;6.87;;;1.77;;
10491;SDS011;5293;51.464;-2.566;2023-04-06T03:47:55;12.70;;;2.77;;
10491;SDS011;5293;51.464;-2.566;2023-04-06T03:50:21;5.33;;;2.20;;
10491;SDS011;5293;51.464;-2.566;2023-04-06T03:52:46;10.47;;;2.93;;
10491;SDS011;5293;51.464;-2.566;2023-04-06T03:55:12;11.83;;;3.07;;
10491;SDS011;5293;51.464;-2.566;2023-04-06T03:57:38;12.03;;;3.03;;
10491;SDS011;5293;51.464;-2.566;2023-04-06T04:00:03;11.20;;;2.60;;
10491;SDS011;5293;51.464;-2.566;2023-04-06T04:02:29;12.47;;;3.00;;
10491;SDS011;5293;51.464;-2.566;2023-04-06T04:04:55;11.47;;;3.23;;
10491;SDS011;5293;51.464;-2.566;2023-04-06T04:07:21;17.47;;;3.30;;
10491;SDS011;5293;51.464;-2.566;2023-04-06T04:09:46;9.40;;;2.70;;
10491;SDS011;5293;51.464;-2.566;2023-04-06T04:12:12;8.53;;;3.03;;
10491;SDS011;5293;51.464;-2.566;2023-04-06T04:14:39;12.37;;;3.10;;
10491;SDS011;5293;51.464;-2.566;2023-04-06T04:17:05;23.43;;;4.10;;
10491;SDS011;5293;51.464;-2.566;2023-04-06T04:19:30;15.30;;;4.53;;
10491;SDS011;5293;51.464;-2.566;2023-04-06T04:21:56;10.30;;;2.70;;
10491;SDS011;5293;51.464;-2.566;2023-04-06T04:24:22;15.53;;;3.43;;
10491;SDS011;5293;51.464;-2.566;2023-04-06T04:26:47;14.03;;;3.07;;
10491;SDS011;5293;51.464;-2.566;2023-04-06T04:29:13;19.73;;;3.67;;
10491;SDS011;5293;51.464;-2.566;2023-04-06T04:31:39;14.53;;;2.83;;
10491;SDS011;5293;51.464;-2.566;2023-04-06T04:34:05;17.70;;;3.63;;
10491;SDS011;5293;51.464;-2.566;2023-04-06T04:36:31;13.33;;;3.23;;
10491;SDS011;5293;51.464;-2.566;2023-04-06T04:38:57;17.43;;;3.60;;
10491;SDS011;5293;51.464;-2.566;2023-04-06T04:41:23;18.93;;;3.57;;
10491;SDS011;5293;51.464;-2.566;2023-04-06T04:43:49;10.00;;;3.00;;
10491;SDS011;5293;51.464;-2.566;2023-04-06T04:46:15;22.47;;;3.30;;
10491;SDS011;5293;51.464;-2.566;2023-04-06T04:48:40;12.73;;;3.23;;
10491;SDS011;5293;51.464;-2.566;2023-04-06T04:51:06;20.47;;;4.10;;
10491;SDS011;5293;51.464;-2.566;2023-04-06T04:53:31;12.80;;;4.10;;
10491;SDS011;5293;51.464;-2.566;2023-04-06T04:55:57;14.50;;;3.67;;
10491;SDS011;5293;51.464;-2.566;2023-04-06T04:58:23;19.20;;;3.20;;
10491;SDS011;5293;51.464;-2.566;2023-04-06T05:00:49;15.27;;;3.80;;
10491;SDS011;5293;51.464;-2.566;2023-04-06T05:03:21;13.97;;;3.00;;
10491;SDS011;5293;51.464;-2.566;2023-04-06T05:05:49;19.73;;;3.87;;
10491;SDS011;5293;51.464;-2.566;2023-04-06T05:08:15;19.87;;;3.43;;
10491;SDS011;5293;51.464;-2.566;2023-04-06T05:10:41;19.50;;;4.07;;
10491;SDS011;5293;51.464;-2.566;2023-04-06T05:13:07;25.20;;;4.87;;
10491;SDS011;5293;51.464;-2.566;2023-04-06T05:15:32;21.70;;;3.70;;
10491;SDS011;5293;51.464;-2.566;2023-04-06T05:18:03;20.90;;;4.03;;
10491;SDS011;5293;51.464;-2.566;2023-04-06T05:20:29;22.27;;;4.57;;
10491;SDS011;5293;51.464;-2.566;2023-04-06T05:22:55;23.50;;;4.07;;
10491;SDS011;5293;51.464;-2.566;2023-04-06T05:25:21;18.80;;;4.80;;
10491;SDS011;5293;51.464;-2.566;2023-04-06T05:27:47;20.10;;;4.63;;
10491;SDS011;5293;51.464;-2.566;2023-04-06T05:30:13;29.03;;;5.60;;
10491;SDS011;5293;51.464;-2.566;2023-04-06T05:32:39;26.40;;;5.33;;
10491;SDS011;5293;51.464;-2.566;2023-04-06T05:35:05;19.77;;;5.47;;
10491;SDS011;5293;51.464;-2.566;2023-04-06T05:37:31;19.10;;;5.20;;
10491;SDS011;5293;51.464;-2.566;2023-04-06T05:39:56;14.40;;;4.60;;
10491;SDS011;5293;51.464;-2.566;2023-04-06T05:42:22;28.57;;;5.33;;
10491;SDS011;5293;51.464;-2.566;2023-04-06T05:44:48;15.23;;;5.30;;
10491;SDS011;5293;51.464;-2.566;2023-04-06T05:47:14;15.97;;;5.33;;
10491;SDS011;5293;51.464;-2.566;2023-04-06T05:49:41;16.00;;;5.27;;
10491;SDS011;5293;51.464;-2.566;2023-04-06T05:52:08;17.37;;;5.40;;
10491;SDS011;5293;51.464;-2.566;2023-04-06T05:54:35;14.07;;;5.53;;
10491;SDS011;5293;51.464;-2.566;2023-04-06T05:57:03;18.67;;;6.10;;
10491;SDS011;5293;51.464;-2.566;2023-04-06T05:59:30;18.30;;;6.40;;
10491;SDS011;5293;51.464;-2.566;2023-04-06T06:01:56;18.30;;;7.17;;
10491;SDS011;5293;51.464;-2.566;2023-04-06T06:04:21;21.93;;;7.90;;
10491;SDS011;5293;51.464;-2.566;2023-04-06T06:06:47;28.77;;;8.37;;
10491;SDS011;5293;51.464;-2.566;2023-04-06T06:09:13;25.43;;;8.37;;
10491;SDS011;5293;51.464;-2.566;2023-04-06T06:11:39;19.50;;;8.83;;
10491;SDS011;5293;51.464;-2.566;2023-04-06T06:14:06;22.67;;;7.77;;
10491;SDS011;5293;51.464;-2.566;2023-04-06T06:16:31;21.20;;;8.13;;
10491;SDS011;5293;51.464;-2.566;2023-04-06T06:18:57;20.57;;;7.57;;
10491;SDS011;5293;51.464;-2.566;2023-04-06T06:21:23;21.77;;;7.40;;
10491;SDS011;5293;51.464;-2.566;2023-04-06T06:23:48;18.10;;;7.30;;
10491;SDS011;5293;51.464;-2.566;2023-04-06T06:26:15;19.03;;;6.77;;
10491;SDS011;5293;51.464;-2.566;2023-04-06T06:28:41;17.93;;;6.97;;
10491;SDS011;5293;51.464;-2.566;2023-04-06T06:31:06;20.50;;;6.67;;
10491;SDS011;5293;51.464;-2.566;2023-04-06T06:33:32;17.37;;;6.40;;
10491;SDS011;5293;51.464;-2.566;2023-04-06T06:35:58;17.13;;;6.53;;
10491;SDS011;5293;51.464;-2.566;2023-04-06T06:38:23;11.40;;;6.17;;
10491;SDS011;5293;51.464;-2.566;2023-04-06T06:40:49;10.90;;;5.87;;
10491;SDS011;5293;51.464;-2.566;2023-04-06T06:43:15;13.17;;;6.03;;
10491;SDS011;5293;51.464;-2.566;2023-04-06T06:45:41;13.23;;;5.80;;
10491;SDS011;5293;51.464;-2.566;2023-04-06T06:48:07;19.73;;;6.43;;
10491;SDS011;5293;51.464;-2.566;2023-04-06T06:50:32;20.00;;;6.30;;
10491;SDS011;5293;51.464;-2.566;2023-04-06T06:52:58;14.27;;;6.17;;
10491;SDS011;5293;51.464;-2.566;2023-04-06T06:55:24;17.27;;;6.97;;
10491;SDS011;5293;51.464;-2.566;2023-04-06T06:57:51;16.87;;;7.17;;
10491;SDS011;5293;51.464;-2.566;2023-04-06T07:00:18;12.70;;;6.70;;
10491;SDS011;5293;51.464;-2.566;2023-04-06T07:02:45;17.17;;;6.53;;
10491;SDS011;5293;51.464;-2.566;2023-04-06T07:05:12;20.43;;;8.40;;
10491;SDS011;5293;51.464;-2.566;2023-04-06T07:07:37;19.57;;;8.53;;
10491;SDS011;5293;51.464;-2.566;2023-04-06T07:10:03;24.97;;;9.23;;
10491;SDS011;5293;51.464;-2.566;2023-04-06T07:12:29;21.93;;;7.90;;
10491;SDS011;5293;51.464;-2.566;2023-04-06T07:14:55;22.87;;;8.13;;
10491;SDS011;5293;51.464;-2.566;2023-04-06T07:17:21;21.73;;;10.00;;
10491;SDS011;5293;51.464;-2.566;2023-04-06T07:19:46;16.57;;;9.43;;
10491;SDS011;5293;51.464;-2.566;2023-04-06T07:22:12;21.47;;;9.43;;
10491;SDS011;5293;51.464;-2.566;2023-04-06T07:24:38;15.97;;;8.50;;
10491;SDS011;5293;51.464;-2.566;2023-04-06T07:27:03;15.47;;;7.40;;
10491;SDS011;5293;51.464;-2.566;2023-04-06T07:29:30;18.27;;;7.43;;
10491;SDS011;5293;51.464;-2.566;2023-04-06T07:31:55;15.80;;;7.00;;
10491;SDS011;5293;51.464;-2.566;2023-04-06T07:34:21;16.60;;;6.43;;
10491;SDS011;5293;51.464;-2.566;2023-04-06T07:36:47;11.03;;;5.37;;
10491;SDS011;5293;51.464;-2.566;2023-04-06T07:39:13;12.30;;;5.57;;
10491;SDS011;5293;51.464;-2.566;2023-04-06T07:41:39;14.37;;;5.87;;
10491;SDS011;5293;51.464;-2.566;2023-04-06T07:44:05;10.30;;;4.63;;
10491;SDS011;5293;51.464;-2.566;2023-04-06T07:46:30;18.07;;;5.20;;
10491;SDS011;5293;51.464;-2.566;2023-04-06T07:48:57;12.00;;;5.23;;
10491;SDS011;5293;51.464;-2.566;2023-04-06T07:51:23;12.77;;;5.57;;
10491;SDS011;5293;51.464;-2.566;2023-04-06T07:53:49;9.67;;;6.37;;
10491;SDS011;5293;51.464;-2.566;2023-04-06T07:56:16;18.30;;;8.67;;
10491;SDS011;5293;51.464;-2.566;2023-04-06T07:58:41;19.63;;;8.67;;
10491;SDS011;5293;51.464;-2.566;2023-04-06T08:01:07;20.27;;;8.80;;
10491;SDS011;5293;51.464;-2.566;2023-04-06T08:03:33;15.43;;;8.73;;
10491;SDS011;5293;51.464;-2.566;2023-04-06T08:06:00;16.57;;;9.03;;
10491;SDS011;5293;51.464;-2.566;2023-04-06T08:08:26;13.93;;;9.00;;
10491;SDS011;5293;51.464;-2.566;2023-04-06T08:10:52;13.50;;;8.80;;
10491;SDS011;5293;51.464;-2.566;2023-04-06T08:13:17;16.40;;;7.67;;
10491;SDS011;5293;51.464;-2.566;2023-04-06T08:15:43;9.67;;;6.27;;
10491;SDS011;5293;51.464;-2.566;2023-04-06T08:18:09;14.50;;;6.90;;
10491;SDS011;5293;51.464;-2.566;2023-04-06T08:20:35;11.63;;;6.27;;
10491;SDS011;5293;51.464;-2.566;2023-04-06T08:23:00;10.80;;;5.27;;
10491;SDS011;5293;51.464;-2.566;2023-04-06T08:25:26;11.10;;;5.33;;
10491;SDS011;5293;51.464;-2.566;2023-04-06T08:27:52;11.50;;;4.67;;
10491;SDS011;5293;51.464;-2.566;2023-04-06T08:30:18;14.27;;;4.63;;
10491;SDS011;5293;51.464;-2.566;2023-04-06T08:32:44;14.10;;;5.67;;
10491;SDS011;5293;51.464;-2.566;2023-04-06T08:35:11;10.00;;;4.60;;
10491;SDS011;5293;51.464;-2.566;2023-04-06T08:37:37;8.50;;;4.73;;
10491;SDS011;5293;51.464;-2.566;2023-04-06T08:40:03;12.73;;;5.63;;
10491;SDS011;5293;51.464;-2.566;2023-04-06T08:42:32;16.43;;;6.10;;
10491;SDS011;5293;51.464;-2.566;2023-04-06T08:44:58;10.80;;;4.37;;
10491;SDS011;5293;51.464;-2.566;2023-04-06T08:47:25;8.63;;;3.63;;
10491;SDS011;5293;51.464;-2.566;2023-04-06T08:49:53;10.43;;;4.40;;
10491;SDS011;5293;51.464;-2.566;2023-04-06T08:52:19;7.40;;;3.63;;
10491;SDS011;5293;51.464;-2.566;2023-04-06T08:54:45;6.80;;;3.50;;
10491;SDS011;5293;51.464;-2.566;2023-04-06T08:57:12;6.47;;;3.13;;
10491;SDS011;5293;51.464;-2.566;2023-04-06T08:59:38;9.90;;;3.37;;
10491;SDS011;5293;51.464;-2.566;2023-04-06T09:02:05;7.50;;;3.07;;
10491;SDS011;5293;51.464;-2.566;2023-04-06T09:04:33;10.03;;;3.30;;
10491;SDS011;5293;51.464;-2.566;2023-04-06T09:07:00;8.43;;;3.10;;
10491;SDS011;5293;51.464;-2.566;2023-04-06T09:09:26;6.00;;;3.30;;
10491;SDS011;5293;51.464;-2.566;2023-04-06T09:11:53;8.60;;;2.30;;
10491;SDS011;5293;51.464;-2.566;2023-04-06T09:14:36;5.63;;;2.53;;
10491;SDS011;5293;51.464;-2.566;2023-04-06T09:17:02;7.20;;;3.03;;
10491;SDS011;5293;51.464;-2.566;2023-04-06T09:19:30;7.97;;;2.80;;
10491;SDS011;5293;51.464;-2.566;2023-04-06T09:22:06;8.57;;;2.87;;
10491;SDS011;5293;51.464;-2.566;2023-04-06T09:27:13;7.70;;;2.53;;
10491;SDS011;5293;51.464;-2.566;2023-04-06T09:29:40;7.63;;;1.97;;
10491;SDS011;5293;51.464;-2.566;2023-04-06T09:32:08;6.50;;;2.10;;
10491;SDS011;5293;51.464;-2.566;2023-04-06T09:34:41;8.47;;;2.30;;
10491;SDS011;5293;51.464;-2.566;2023-04-06T09:37:17;6.07;;;2.30;;
10491;SDS011;5293;51.464;-2.566;2023-04-06T09:39:43;5.20;;;1.53;;
10491;SDS011;5293;51.464;-2.566;2023-04-06T09:42:11;3.00;;;1.67;;
10491;SDS011;5293;51.464;-2.566;2023-04-06T09:44:50;7.77;;;2.00;;
10491;SDS011;5293;51.464;-2.566;2023-04-06T09:47:16;6.33;;;1.60;;
10491;SDS011;5293;51.464;-2.566;2023-04-06T09:49:44;4.17;;;1.87;;
10491;SDS011;5293;51.464;-2.566;2023-04-06T09:52:13;4.77;;;1.50;;
10491;SDS011;5293;51.464;-2.566;2023-04-06T09:54:40;5.00;;;1.63;;
10491;SDS011;5293;51.464;-2.566;2023-04-06T10:07:45;9.47;;;2.50;;
10491;SDS011;5293;51.464;-2.566;2023-04-06T10:10:12;4.37;;;2.20;;
10491;SDS011;5293;51.464;-2.566;2023-04-06T10:12:40;9.87;;;2.37;;
10491;SDS011;5293;51.464;-2.566;2023-04-06T10:15:07;5.40;;;1.73;;
10491;SDS011;5293;51.464;-2.566;2023-04-06T10:17:33;8.47;;;2.37;;
10491;SDS011;5293;51.464;-2.566;2023-04-06T10:20:01;3.43;;;1.63;;
10491;SDS011;5293;51.464;-2.566;2023-04-06T10:22:44;4.77;;;1.90;;
10491;SDS011;5293;51.464;-2.566;2023-04-06T10:25:28;7.07;;;1.87;;
10491;SDS011;5293;51.464;-2.566;2023-04-06T10:28:07;7.40;;;2.50;;
10491;SDS011;5293;51.464;-2.566;2023-04-06T10:30:34;12.40;;;2.50;;
10491;SDS011;5293;51.464;-2.566;2023-04-06T10:33:16;5.70;;;2.17;;
10491;SDS011;5293;51.464;-2.566;2023-04-06T10:35:43;9.53;;;3.27;;
10491;SDS011;5293;51.464;-2.566;2023-04-06T10:38:09;6.97;;;3.00;;
10491;SDS011;5293;51.464;-2.566;2023-04-06T10:40:37;12.03;;;3.60;;
10491;SDS011;5293;51.464;-2.566;2023-04-06T10:43:10;6.80;;;3.10;;
10491;SDS011;5293;51.464;-2.566;2023-04-06T10:45:37;12.60;;;3.87;;
10491;SDS011;5293;51.464;-2.566;2023-04-06T10:48:14;9.87;;;3.90;;
10491;SDS011;5293;51.464;-2.566;2023-04-06T10:50:42;11.47;;;3.30;;
10491;SDS011;5293;51.464;-2.566;2023-04-06T10:53:10;12.87;;;3.60;;
10491;SDS011;5293;51.464;-2.566;2023-04-06T10:55:37;10.50;;;3.43;;
10491;SDS011;5293;51.464;-2.566;2023-04-06T10:58:07;6.40;;;2.83;;
10491;SDS011;5293;51.464;-2.566;2023-04-06T11:00:33;12.30;;;3.20;;
10491;SDS011;5293;51.464;-2.566;2023-04-06T11:03:00;7.60;;;2.73;;
10491;SDS011;5293;51.464;-2.566;2023-04-06T11:05:26;9.33;;;2.90;;
10491;SDS011;5293;51.464;-2.566;2023-04-06T11:07:52;6.37;;;2.50;;
10491;SDS011;5293;51.464;-2.566;2023-04-06T11:10:22;7.70;;;3.23;;
10491;SDS011;5293;51.464;-2.566;2023-04-06T11:12:52;8.70;;;2.83;;
10491;SDS011;5293;51.464;-2.566;2023-04-06T11:15:19;3.27;;;1.53;;
10491;SDS011;5293;51.464;-2.566;2023-04-06T11:17:45;6.20;;;1.90;;
10491;SDS011;5293;51.464;-2.566;2023-04-06T11:20:11;7.30;;;2.07;;
10491;SDS011;5293;51.464;-2.566;2023-04-06T11:22:52;6.20;;;2.40;;
10491;SDS011;5293;51.464;-2.566;2023-04-06T11:25:18;6.40;;;1.70;;
10491;SDS011;5293;51.464;-2.566;2023-04-06T11:27:45;5.03;;;1.47;;
10491;SDS011;5293;51.464;-2.566;2023-04-06T11:30:12;5.00;;;1.67;;
10491;SDS011;5293;51.464;-2.566;2023-04-06T11:32:39;6.10;;;1.90;;
10491;SDS011;5293;51.464;-2.566;2023-04-06T11:35:07;7.50;;;1.80;;
10491;SDS011;5293;51.464;-2.566;2023-04-06T11:37:36;6.90;;;1.90;;
10491;SDS011;5293;51.464;-2.566;2023-04-06T11:40:02;10.70;;;2.60;;
10491;SDS011;5293;51.464;-2.566;2023-04-06T11:42:28;10.40;;;2.57;;
10491;SDS011;5293;51.464;-2.566;2023-04-06T11:44:55;5.57;;;2.13;;
10491;SDS011;5293;51.464;-2.566;2023-04-06T11:47:28;5.63;;;1.80;;
10491;SDS011;5293;51.464;-2.566;2023-04-06T11:50:11;10.20;;;2.03;;
10491;SDS011;5293;51.464;-2.566;2023-04-06T11:52:38;4.83;;;2.03;;
10491;SDS011;5293;51.464;-2.566;2023-04-06T11:55:25;5.10;;;1.90;;
10491;SDS011;5293;51.464;-2.566;2023-04-06T11:57:51;11.37;;;4.87;;
10491;SDS011;5293;51.464;-2.566;2023-04-06T12:00:17;4.47;;;1.50;;
10491;SDS011;5293;51.464;-2.566;2023-04-06T12:02:46;4.57;;;1.60;;
10491;SDS011;5293;51.464;-2.566;2023-04-06T12:05:13;4.37;;;1.50;;
10491;SDS011;5293;51.464;-2.566;2023-04-06T12:07:38;4.23;;;1.27;;
10491;SDS011;5293;51.464;-2.566;2023-04-06T12:10:04;8.33;;;1.70;;
10491;SDS011;5293;51.464;-2.566;2023-04-06T12:12:31;2.13;;;1.43;;
10491;SDS011;5293;51.464;-2.566;2023-04-06T12:14:57;4.30;;;1.33;;
10491;SDS011;5293;51.464;-2.566;2023-04-06T12:17:23;4.20;;;1.30;;
10491;SDS011;5293;51.464;-2.566;2023-04-06T12:19:49;1.80;;;0.97;;
10491;SDS011;5293;51.464;-2.566;2023-04-06T12:22:15;2.07;;;1.00;;
10491;SDS011;5293;51.464;-2.566;2023-04-06T12:24:42;3.17;;;1.20;;
10491;SDS011;5293;51.464;-2.566;2023-04-06T12:27:08;2.43;;;0.80;;
10491;SDS011;5293;51.464;-2.566;2023-04-06T12:29:36;5.27;;;1.97;;
10491;SDS011;5293;51.464;-2.566;2023-04-06T12:32:02;3.97;;;1.70;;
10491;SDS011;5293;51.464;-2.566;2023-04-06T12:34:27;8.10;;;1.93;;
10491;SDS011;5293;51.464;-2.566;2023-04-06T12:36:53;8.27;;;2.23;;
10491;SDS011;5293;51.464;-2.566;2023-04-06T12:39:19;8.70;;;2.30;;
10491;SDS011;5293;51.464;-2.566;2023-04-06T12:41:46;5.07;;;2.50;;
10491;SDS011;5293;51.464;-2.566;2023-04-06T12:44:12;5.43;;;1.60;;
10491;SDS011;5293;51.464;-2.566;2023-04-06T12:46:38;2.10;;;0.50;;
10491;SDS011;5293;51.464;-2.566;2023-04-06T12:49:03;6.97;;;1.03;;
10491;SDS011;5293;51.464;-2.566;2023-04-06T12:51:29;6.87;;;0.87;;
10491;SDS011;5293;51.464;-2.566;2023-04-06T12:53:56;0.73;;;0.40;;
10491;SDS011;5293;51.464;-2.566;2023-04-06T12:56:21;2.30;;;0.83;;
10491;SDS011;5293;51.464;-2.566;2023-04-06T12:58:48;2.50;;;0.70;;
10491;SDS011;5293;51.464;-2.566;2023-04-06T13:01:15;0.60;;;0.40;;
10491;SDS011;5293;51.464;-2.566;2023-04-06T13:03:40;1.93;;;0.60;;
10491;SDS011;5293;51.464;-2.566;2023-04-06T13:06:06;1.73;;;0.60;;
10491;SDS011;5293;51.464;-2.566;2023-04-06T13:08:36;2.90;;;0.70;;
10491;SDS011;5293;51.464;-2.566;2023-04-06T13:11:03;1.27;;;0.60;;
10491;SDS011;5293;51.464;-2.566;2023-04-06T13:13:29;2.63;;;0.50;;
10491;SDS011;5293;51.464;-2.566;2023-04-06T13:15:59;1.83;;;0.50;;
10491;SDS011;5293;51.464;-2.566;2023-04-06T13:18:30;0.80;;;0.50;;
10491;SDS011;5293;51.464;-2.566;2023-04-06T13:20:56;0.47;;;0.43;;
10491;SDS011;5293;51.464;-2.566;2023-04-06T13:23:25;1.33;;;0.57;;
10491;SDS011;5293;51.464;-2.566;2023-04-06T13:26:01;1.00;;;0.50;;
10491;SDS011;5293;51.464;-2.566;2023-04-06T13:28:32;1.60;;;0.50;;
10491;SDS011;5293;51.464;-2.566;2023-04-06T13:30:59;2.10;;;0.60;;
10491;SDS011;5293;51.464;-2.566;2023-04-06T13:33:26;1.87;;;0.60;;
10491;SDS011;5293;51.464;-2.566;2023-04-06T13:35:52;3.27;;;1.73;;
10491;SDS011;5293;51.464;-2.566;2023-04-06T13:38:18;2.90;;;0.93;;
10491;SDS011;5293;51.464;-2.566;2023-04-06T13:40:44;5.43;;;1.20;;
10491;SDS011;5293;51.464;-2.566;2023-04-06T13:43:11;5.70;;;1.20;;
10491;SDS011;5293;51.464;-2.566;2023-04-06T13:45:37;2.60;;;0.97;;
10491;SDS011;5293;51.464;-2.566;2023-04-06T13:48:03;1.37;;;1.10;;
10491;SDS011;5293;51.464;-2.566;2023-04-06T13:50:30;4.17;;;1.47;;
10491;SDS011;5293;51.464;-2.566;2023-04-06T13:52:56;3.63;;;1.47;;
10491;SDS011;5293;51.464;-2.566;2023-04-06T13:55:21;6.40;;;1.33;;
10491;SDS011;5293;51.464;-2.566;2023-04-06T13:57:49;3.00;;;1.30;;
10491;SDS011;5293;51.464;-2.566;2023-04-06T14:00:16;6.87;;;1.27;;
10491;SDS011;5293;51.464;-2.566;2023-04-06T14:02:42;2.17;;;1.13;;
10491;SDS011;5293;51.464;-2.566;2023-04-06T14:05:07;2.47;;;1.30;;
10491;SDS011;5293;51.464;-2.566;2023-04-06T14:07:33;2.83;;;1.53;;
10491;SDS011;5293;51.464;-2.566;2023-04-06T14:09:59;1.77;;;1.03;;
10491;SDS011;5293;51.464;-2.566;2023-04-06T14:12:25;3.27;;;1.40;;
10491;SDS011;5293;51.464;-2.566;2023-04-06T14:14:52;4.20;;;1.37;;
10491;SDS011;5293;51.464;-2.566;2023-04-06T14:17:17;3.63;;;1.23;;
10491;SDS011;5293;51.464;-2.566;2023-04-06T14:19:43;4.50;;;1.40;;
10491;SDS011;5293;51.464;-2.566;2023-04-06T14:22:09;6.70;;;1.83;;
10491;SDS011;5293;51.464;-2.566;2023-04-06T14:24:35;4.60;;;1.30;;
10491;SDS011;5293;51.464;-2.566;2023-04-06T14:27:02;5.87;;;1.60;;
10491;SDS011;5293;51.464;-2.566;2023-04-06T14:29:28;6.37;;;1.60;;
10491;SDS011;5293;51.464;-2.566;2023-04-06T14:31:53;6.90;;;1.93;;
10491;SDS011;5293;51.464;-2.566;2023-04-06T14:34:25;6.00;;;2.10;;
10491;SDS011;5293;51.464;-2.566;2023-04-06T14:36:51;7.50;;;2.13;;
10491;SDS011;5293;51.464;-2.566;2023-04-06T14:39:17;7.90;;;1.97;;
10491;SDS011;5293;51.464;-2.566;2023-04-06T14:41:43;15.67;;;2.03;;
10491;SDS011;5293;51.464;-2.566;2023-04-06T14:44:08;4.07;;;2.50;;
10491;SDS011;5293;51.464;-2.566;2023-04-06T14:46:37;7.67;;;1.90;;
10491;SDS011;5293;51.464;-2.566;2023-04-06T14:49:03;3.07;;;1.77;;
10491;SDS011;5293;51.464;-2.566;2023-04-06T14:51:29;8.07;;;1.93;;
10491;SDS011;5293;51.464;-2.566;2023-04-06T14:53:55;6.97;;;2.50;;